Archival Weather

Fukuoka

Fukuoka, Japan (RJFF)

Report from: Tuesday, August 16, 2022 8:30 AM JST
Current time: Sunday, November 27, 2022 6:44 PM JST

Current weather
Weather history
Weather forecast

Present weatherVCSH, light rain showers
Temperature29.0°C (84.2°F)
Heat index34.6°C (94.3°F)
Dew point25.0°C (77.0°F)
Winds 13 kts (6.7 m/s, 15 mph) South-Southeast (150°)
Visibility6.2 mi. (10 km)
Clouds Few clouds 800 ft. (244 m)
Scattered clouds 3,500 ft. (1,067 m)
Ceiling: Broken clouds 5,000 ft. (1,524 m)
Altimeter29.74 in.Hg (1007 mB)
Relative humidity79 %
Density altitude2,241 ft. (683 m)
Flight conditions Visual Meteorological Conditions
Raw dataRJFF 152330Z 15013KT 9999 VCSH FEW008 SCT035 BKN050 29/25 Q1007 TEMPO 4000 -SHRA BR RMK 1ST008 3CU035 5SC050 A2974
An error has occurred. This application may no longer respond until reloaded. Reload 🗙